sensor_id;sensor_type;location;lat;lon;timestamp;P1;durP1;ratioP1;P2;durP2;ratioP2
2486;SDS011;1254;49.144;8.212;2023-03-01T00:01:02;18.00;;;9.25;;
2486;SDS011;1254;49.144;8.212;2023-03-01T00:03:32;14.60;;;9.35;;
2486;SDS011;1254;49.144;8.212;2023-03-01T00:06:00;16.45;;;9.95;;
2486;SDS011;1254;49.144;8.212;2023-03-01T00:08:29;14.98;;;8.77;;
2486;SDS011;1254;49.144;8.212;2023-03-01T00:11:01;13.63;;;8.80;;
2486;SDS011;1254;49.144;8.212;2023-03-01T00:13:29;17.60;;;9.45;;
2486;SDS011;1254;49.144;8.212;2023-03-01T00:15:57;15.32;;;10.20;;
2486;SDS011;1254;49.144;8.212;2023-03-01T00:18:25;14.02;;;9.90;;
2486;SDS011;1254;49.144;8.212;2023-03-01T00:20:55;17.48;;;9.32;;
2486;SDS011;1254;49.144;8.212;2023-03-01T00:23:23;16.05;;;10.52;;
2486;SDS011;1254;49.144;8.212;2023-03-01T00:25:52;18.42;;;8.43;;
2486;SDS011;1254;49.144;8.212;2023-03-01T00:28:20;14.80;;;8.60;;
2486;SDS011;1254;49.144;8.212;2023-03-01T00:30:48;20.05;;;10.38;;
2486;SDS011;1254;49.144;8.212;2023-03-01T00:33:17;12.43;;;9.15;;
2486;SDS011;1254;49.144;8.212;2023-03-01T00:35:46;14.25;;;8.20;;
2486;SDS011;1254;49.144;8.212;2023-03-01T00:38:15;17.73;;;9.57;;
2486;SDS011;1254;49.144;8.212;2023-03-01T00:40:44;14.90;;;8.73;;
2486;SDS011;1254;49.144;8.212;2023-03-01T00:43:12;16.90;;;8.20;;
2486;SDS011;1254;49.144;8.212;2023-03-01T00:45:40;14.15;;;8.98;;
2486;SDS011;1254;49.144;8.212;2023-03-01T00:48:08;14.02;;;9.15;;
2486;SDS011;1254;49.144;8.212;2023-03-01T00:50:36;16.55;;;8.80;;
2486;SDS011;1254;49.144;8.212;2023-03-01T00:53:05;20.75;;;9.02;;
2486;SDS011;1254;49.144;8.212;2023-03-01T00:55:35;18.83;;;9.77;;
2486;SDS011;1254;49.144;8.212;2023-03-01T00:58:05;14.68;;;9.40;;
2486;SDS011;1254;49.144;8.212;2023-03-01T01:00:33;15.45;;;10.13;;
2486;SDS011;1254;49.144;8.212;2023-03-01T01:03:01;14.48;;;8.05;;
2486;SDS011;1254;49.144;8.212;2023-03-01T01:05:30;14.43;;;8.65;;
2486;SDS011;1254;49.144;8.212;2023-03-01T01:07:58;19.88;;;10.05;;
2486;SDS011;1254;49.144;8.212;2023-03-01T01:10:26;12.77;;;7.45;;
2486;SDS011;1254;49.144;8.212;2023-03-01T01:12:56;10.68;;;7.47;;
2486;SDS011;1254;49.144;8.212;2023-03-01T01:15:24;21.08;;;9.25;;
2486;SDS011;1254;49.144;8.212;2023-03-01T01:17:52;12.15;;;8.68;;
2486;SDS011;1254;49.144;8.212;2023-03-01T01:20:21;15.38;;;8.15;;
2486;SDS011;1254;49.144;8.212;2023-03-01T01:22:49;14.02;;;8.52;;
2486;SDS011;1254;49.144;8.212;2023-03-01T01:25:18;15.75;;;9.43;;
2486;SDS011;1254;49.144;8.212;2023-03-01T01:27:47;11.30;;;8.15;;
2486;SDS011;1254;49.144;8.212;2023-03-01T01:30:16;13.98;;;8.60;;
2486;SDS011;1254;49.144;8.212;2023-03-01T01:32:44;10.13;;;7.18;;
2486;SDS011;1254;49.144;8.212;2023-03-01T01:35:13;13.50;;;7.95;;
2486;SDS011;1254;49.144;8.212;2023-03-01T01:37:41;12.35;;;9.25;;
2486;SDS011;1254;49.144;8.212;2023-03-01T01:40:09;16.63;;;9.20;;
2486;SDS011;1254;49.144;8.212;2023-03-01T01:42:38;16.50;;;8.43;;
2486;SDS011;1254;49.144;8.212;2023-03-01T01:47:51;12.95;;;8.52;;
2486;SDS011;1254;49.144;8.212;2023-03-01T01:50:20;13.60;;;9.25;;
2486;SDS011;1254;49.144;8.212;2023-03-01T01:52:49;15.13;;;9.48;;
2486;SDS011;1254;49.144;8.212;2023-03-01T01:55:20;15.95;;;9.45;;
2486;SDS011;1254;49.144;8.212;2023-03-01T01:57:51;20.48;;;9.38;;
2486;SDS011;1254;49.144;8.212;2023-03-01T02:00:21;16.63;;;10.25;;
2486;SDS011;1254;49.144;8.212;2023-03-01T02:02:51;15.43;;;9.90;;
2486;SDS011;1254;49.144;8.212;2023-03-01T02:05:24;17.85;;;9.70;;
2486;SDS011;1254;49.144;8.212;2023-03-01T02:07:54;14.82;;;8.93;;
2486;SDS011;1254;49.144;8.212;2023-03-01T02:10:22;15.10;;;10.93;;
2486;SDS011;1254;49.144;8.212;2023-03-01T02:12:51;16.55;;;10.95;;
2486;SDS011;1254;49.144;8.212;2023-03-01T02:15:19;14.02;;;9.95;;
2486;SDS011;1254;49.144;8.212;2023-03-01T02:17:48;18.65;;;8.63;;
2486;SDS011;1254;49.144;8.212;2023-03-01T02:20:19;16.15;;;9.77;;
2486;SDS011;1254;49.144;8.212;2023-03-01T02:22:51;18.15;;;9.32;;
2486;SDS011;1254;49.144;8.212;2023-03-01T02:25:23;16.88;;;10.23;;
2486;SDS011;1254;49.144;8.212;2023-03-01T02:27:54;12.05;;;8.50;;
2486;SDS011;1254;49.144;8.212;2023-03-01T02:30:25;15.27;;;10.02;;
2486;SDS011;1254;49.144;8.212;2023-03-01T02:32:54;14.43;;;9.43;;
2486;SDS011;1254;49.144;8.212;2023-03-01T02:35:28;15.52;;;9.90;;
2486;SDS011;1254;49.144;8.212;2023-03-01T02:37:58;18.10;;;10.43;;
2486;SDS011;1254;49.144;8.212;2023-03-01T02:40:27;18.67;;;11.70;;
2486;SDS011;1254;49.144;8.212;2023-03-01T02:42:56;17.77;;;10.90;;
2486;SDS011;1254;49.144;8.212;2023-03-01T02:45:26;14.43;;;9.80;;
2486;SDS011;1254;49.144;8.212;2023-03-01T02:47:55;15.82;;;9.73;;
2486;SDS011;1254;49.144;8.212;2023-03-01T02:50:31;15.90;;;11.13;;
2486;SDS011;1254;49.144;8.212;2023-03-01T02:53:04;13.18;;;9.65;;
2486;SDS011;1254;49.144;8.212;2023-03-01T02:55:36;17.05;;;10.90;;
2486;SDS011;1254;49.144;8.212;2023-03-01T02:58:05;15.70;;;10.15;;
2486;SDS011;1254;49.144;8.212;2023-03-01T03:00:36;16.73;;;10.45;;
2486;SDS011;1254;49.144;8.212;2023-03-01T03:03:06;14.73;;;8.75;;
2486;SDS011;1254;49.144;8.212;2023-03-01T03:05:35;16.60;;;10.38;;
2486;SDS011;1254;49.144;8.212;2023-03-01T03:08:03;20.15;;;9.27;;
2486;SDS011;1254;49.144;8.212;2023-03-01T03:10:37;12.38;;;7.63;;
2486;SDS011;1254;49.144;8.212;2023-03-01T03:13:07;15.10;;;10.10;;
2486;SDS011;1254;49.144;8.212;2023-03-01T03:15:38;18.75;;;9.93;;
2486;SDS011;1254;49.144;8.212;2023-03-01T03:18:07;19.98;;;11.98;;
2486;SDS011;1254;49.144;8.212;2023-03-01T03:20:36;20.92;;;10.88;;
2486;SDS011;1254;49.144;8.212;2023-03-01T03:23:04;18.23;;;10.60;;
2486;SDS011;1254;49.144;8.212;2023-03-01T03:25:33;16.25;;;9.85;;
2486;SDS011;1254;49.144;8.212;2023-03-01T03:28:04;17.70;;;10.55;;
2486;SDS011;1254;49.144;8.212;2023-03-01T03:30:36;21.05;;;11.27;;
2486;SDS011;1254;49.144;8.212;2023-03-01T03:33:06;17.73;;;10.88;;
2486;SDS011;1254;49.144;8.212;2023-03-01T03:35:38;25.85;;;10.55;;
2486;SDS011;1254;49.144;8.212;2023-03-01T03:38:07;17.52;;;9.15;;
2486;SDS011;1254;49.144;8.212;2023-03-01T03:40:42;22.15;;;10.75;;
2486;SDS011;1254;49.144;8.212;2023-03-01T03:43:11;15.43;;;9.10;;
2486;SDS011;1254;49.144;8.212;2023-03-01T03:45:39;17.73;;;10.60;;
2486;SDS011;1254;49.144;8.212;2023-03-01T03:48:09;17.42;;;10.68;;
2486;SDS011;1254;49.144;8.212;2023-03-01T03:50:38;14.82;;;10.35;;
2486;SDS011;1254;49.144;8.212;2023-03-01T03:53:08;17.75;;;11.68;;
2486;SDS011;1254;49.144;8.212;2023-03-01T03:55:36;18.75;;;11.23;;
2486;SDS011;1254;49.144;8.212;2023-03-01T03:58:05;19.38;;;11.82;;
2486;SDS011;1254;49.144;8.212;2023-03-01T04:00:34;20.27;;;11.55;;
2486;SDS011;1254;49.144;8.212;2023-03-01T04:03:03;17.13;;;10.00;;
2486;SDS011;1254;49.144;8.212;2023-03-01T04:05:33;15.02;;;10.10;;
2486;SDS011;1254;49.144;8.212;2023-03-01T04:08:01;18.63;;;12.20;;
2486;SDS011;1254;49.144;8.212;2023-03-01T04:10:29;16.73;;;10.65;;
2486;SDS011;1254;49.144;8.212;2023-03-01T04:12:58;14.85;;;10.27;;
2486;SDS011;1254;49.144;8.212;2023-03-01T04:15:26;14.40;;;9.65;;
2486;SDS011;1254;49.144;8.212;2023-03-01T04:17:54;21.83;;;10.80;;
2486;SDS011;1254;49.144;8.212;2023-03-01T04:20:25;15.00;;;9.75;;
2486;SDS011;1254;49.144;8.212;2023-03-01T04:22:58;19.80;;;11.65;;
2486;SDS011;1254;49.144;8.212;2023-03-01T04:25:37;18.58;;;10.18;;
2486;SDS011;1254;49.144;8.212;2023-03-01T04:28:05;18.55;;;10.20;;
2486;SDS011;1254;49.144;8.212;2023-03-01T04:30:34;20.98;;;10.55;;
2486;SDS011;1254;49.144;8.212;2023-03-01T04:33:03;20.20;;;10.77;;
2486;SDS011;1254;49.144;8.212;2023-03-01T04:35:31;21.38;;;12.48;;
2486;SDS011;1254;49.144;8.212;2023-03-01T04:38:01;14.95;;;9.52;;
2486;SDS011;1254;49.144;8.212;2023-03-01T04:40:30;18.40;;;12.05;;
2486;SDS011;1254;49.144;8.212;2023-03-01T04:42:58;18.15;;;11.93;;
2486;SDS011;1254;49.144;8.212;2023-03-01T04:45:26;20.13;;;10.68;;
2486;SDS011;1254;49.144;8.212;2023-03-01T04:47:55;18.85;;;11.35;;
2486;SDS011;1254;49.144;8.212;2023-03-01T04:50:24;19.67;;;11.13;;
2486;SDS011;1254;49.144;8.212;2023-03-01T04:52:52;26.00;;;14.00;;
2486;SDS011;1254;49.144;8.212;2023-03-01T04:55:26;26.30;;;13.43;;
2486;SDS011;1254;49.144;8.212;2023-03-01T04:57:54;20.70;;;12.05;;
2486;SDS011;1254;49.144;8.212;2023-03-01T05:00:23;18.58;;;12.38;;
2486;SDS011;1254;49.144;8.212;2023-03-01T05:02:52;23.05;;;11.70;;
2486;SDS011;1254;49.144;8.212;2023-03-01T05:05:21;21.90;;;11.57;;
2486;SDS011;1254;49.144;8.212;2023-03-01T05:07:52;21.92;;;12.48;;
2486;SDS011;1254;49.144;8.212;2023-03-01T05:10:20;19.67;;;10.77;;
2486;SDS011;1254;49.144;8.212;2023-03-01T05:12:50;26.38;;;10.95;;
2486;SDS011;1254;49.144;8.212;2023-03-01T05:15:19;19.83;;;12.40;;
2486;SDS011;1254;49.144;8.212;2023-03-01T05:17:51;30.25;;;13.48;;
2486;SDS011;1254;49.144;8.212;2023-03-01T05:20:20;19.65;;;11.05;;
2486;SDS011;1254;49.144;8.212;2023-03-01T05:22:50;16.90;;;9.93;;
2486;SDS011;1254;49.144;8.212;2023-03-01T05:25:18;25.50;;;12.55;;
2486;SDS011;1254;49.144;8.212;2023-03-01T05:27:47;19.80;;;9.50;;
2486;SDS011;1254;49.144;8.212;2023-03-01T05:30:17;19.25;;;10.02;;
2486;SDS011;1254;49.144;8.212;2023-03-01T05:32:47;23.90;;;11.57;;
2486;SDS011;1254;49.144;8.212;2023-03-01T05:35:16;21.23;;;12.35;;
2486;SDS011;1254;49.144;8.212;2023-03-01T05:37:46;21.90;;;14.07;;
2486;SDS011;1254;49.144;8.212;2023-03-01T05:40:15;20.55;;;12.30;;
2486;SDS011;1254;49.144;8.212;2023-03-01T05:42:44;23.08;;;11.93;;
2486;SDS011;1254;49.144;8.212;2023-03-01T05:45:28;21.35;;;12.73;;
2486;SDS011;1254;49.144;8.212;2023-03-01T05:47:58;21.65;;;11.27;;
2486;SDS011;1254;49.144;8.212;2023-03-01T05:50:27;18.13;;;11.98;;
2486;SDS011;1254;49.144;8.212;2023-03-01T05:53:00;20.67;;;12.20;;
2486;SDS011;1254;49.144;8.212;2023-03-01T05:55:28;26.45;;;13.38;;
2486;SDS011;1254;49.144;8.212;2023-03-01T05:57:58;24.92;;;13.35;;
2486;SDS011;1254;49.144;8.212;2023-03-01T06:00:26;20.85;;;12.77;;
2486;SDS011;1254;49.144;8.212;2023-03-01T06:02:57;24.40;;;13.18;;
2486;SDS011;1254;49.144;8.212;2023-03-01T06:05:26;18.90;;;12.25;;
2486;SDS011;1254;49.144;8.212;2023-03-01T06:07:55;27.27;;;15.30;;
2486;SDS011;1254;49.144;8.212;2023-03-01T06:10:26;26.88;;;13.07;;
2486;SDS011;1254;49.144;8.212;2023-03-01T06:12:54;22.60;;;14.43;;
2486;SDS011;1254;49.144;8.212;2023-03-01T06:15:23;20.67;;;13.50;;
2486;SDS011;1254;49.144;8.212;2023-03-01T06:17:53;22.63;;;13.35;;
2486;SDS011;1254;49.144;8.212;2023-03-01T06:20:25;23.42;;;14.15;;
2486;SDS011;1254;49.144;8.212;2023-03-01T06:22:53;24.42;;;12.80;;
2486;SDS011;1254;49.144;8.212;2023-03-01T06:25:22;24.35;;;12.68;;
2486;SDS011;1254;49.144;8.212;2023-03-01T06:27:51;23.02;;;13.48;;
2486;SDS011;1254;49.144;8.212;2023-03-01T06:30:20;24.15;;;13.57;;
2486;SDS011;1254;49.144;8.212;2023-03-01T06:32:49;23.52;;;12.75;;
2486;SDS011;1254;49.144;8.212;2023-03-01T06:35:20;27.02;;;13.00;;
2486;SDS011;1254;49.144;8.212;2023-03-01T06:37:49;23.30;;;14.13;;
2486;SDS011;1254;49.144;8.212;2023-03-01T06:40:18;25.55;;;13.68;;
2486;SDS011;1254;49.144;8.212;2023-03-01T06:42:47;24.50;;;13.05;;
2486;SDS011;1254;49.144;8.212;2023-03-01T06:45:16;25.77;;;14.35;;
2486;SDS011;1254;49.144;8.212;2023-03-01T06:47:44;25.70;;;14.02;;
2486;SDS011;1254;49.144;8.212;2023-03-01T06:50:13;22.27;;;11.75;;
2486;SDS011;1254;49.144;8.212;2023-03-01T06:52:41;22.23;;;13.93;;
2486;SDS011;1254;49.144;8.212;2023-03-01T06:55:12;28.02;;;13.75;;
2486;SDS011;1254;49.144;8.212;2023-03-01T06:57:41;24.75;;;16.02;;
2486;SDS011;1254;49.144;8.212;2023-03-01T07:00:10;27.02;;;13.35;;
2486;SDS011;1254;49.144;8.212;2023-03-01T07:02:38;29.55;;;15.00;;
2486;SDS011;1254;49.144;8.212;2023-03-01T07:05:06;33.90;;;15.32;;
2486;SDS011;1254;49.144;8.212;2023-03-01T07:07:35;24.63;;;14.50;;
2486;SDS011;1254;49.144;8.212;2023-03-01T07:10:03;45.30;;;15.70;;
2486;SDS011;1254;49.144;8.212;2023-03-01T07:12:33;31.52;;;14.05;;
2486;SDS011;1254;49.144;8.212;2023-03-01T07:15:02;27.20;;;13.68;;
2486;SDS011;1254;49.144;8.212;2023-03-01T07:17:30;28.52;;;14.73;;
2486;SDS011;1254;49.144;8.212;2023-03-01T07:19:58;21.00;;;12.55;;
2486;SDS011;1254;49.144;8.212;2023-03-01T07:22:27;26.33;;;13.50;;
2486;SDS011;1254;49.144;8.212;2023-03-01T07:24:55;20.48;;;12.93;;
2486;SDS011;1254;49.144;8.212;2023-03-01T07:27:23;29.70;;;15.80;;
2486;SDS011;1254;49.144;8.212;2023-03-01T07:29:53;20.88;;;13.18;;
2486;SDS011;1254;49.144;8.212;2023-03-01T07:32:21;27.05;;;13.98;;
2486;SDS011;1254;49.144;8.212;2023-03-01T07:34:50;33.85;;;16.75;;
2486;SDS011;1254;49.144;8.212;2023-03-01T07:37:18;34.75;;;15.82;;
2486;SDS011;1254;49.144;8.212;2023-03-01T07:39:46;30.08;;;17.05;;
2486;SDS011;1254;49.144;8.212;2023-03-01T07:42:14;31.63;;;15.50;;
2486;SDS011;1254;49.144;8.212;2023-03-01T07:44:43;25.92;;;16.20;;
2486;SDS011;1254;49.144;8.212;2023-03-01T07:47:12;22.40;;;15.05;;
2486;SDS011;1254;49.144;8.212;2023-03-01T07:49:40;34.25;;;15.88;;
2486;SDS011;1254;49.144;8.212;2023-03-01T07:52:09;29.00;;;15.98;;
2486;SDS011;1254;49.144;8.212;2023-03-01T07:54:38;22.17;;;14.27;;
2486;SDS011;1254;49.144;8.212;2023-03-01T07:57:06;26.02;;;13.43;;
2486;SDS011;1254;49.144;8.212;2023-03-01T07:59:34;28.55;;;15.85;;
2486;SDS011;1254;49.144;8.212;2023-03-01T08:02:02;27.05;;;15.85;;
2486;SDS011;1254;49.144;8.212;2023-03-01T08:04:32;29.35;;;14.57;;
2486;SDS011;1254;49.144;8.212;2023-03-01T08:07:00;27.98;;;15.77;;
2486;SDS011;1254;49.144;8.212;2023-03-01T08:09:29;31.65;;;15.95;;
2486;SDS011;1254;49.144;8.212;2023-03-01T08:11:57;24.02;;;14.52;;
2486;SDS011;1254;49.144;8.212;2023-03-01T08:14:26;30.40;;;16.55;;
2486;SDS011;1254;49.144;8.212;2023-03-01T08:16:54;25.60;;;13.07;;
2486;SDS011;1254;49.144;8.212;2023-03-01T08:19:23;32.08;;;17.23;;
2486;SDS011;1254;49.144;8.212;2023-03-01T08:21:52;27.15;;;15.77;;
2486;SDS011;1254;49.144;8.212;2023-03-01T08:24:21;22.35;;;14.50;;
2486;SDS011;1254;49.144;8.212;2023-03-01T08:26:49;23.13;;;15.52;;
2486;SDS011;1254;49.144;8.212;2023-03-01T08:29:17;37.03;;;16.63;;
2486;SDS011;1254;49.144;8.212;2023-03-01T08:31:46;25.55;;;15.05;;
2486;SDS011;1254;49.144;8.212;2023-03-01T08:34:15;21.80;;;15.68;;
2486;SDS011;1254;49.144;8.212;2023-03-01T08:36:44;21.40;;;14.73;;
2486;SDS011;1254;49.144;8.212;2023-03-01T08:39:14;21.33;;;13.93;;
2486;SDS011;1254;49.144;8.212;2023-03-01T08:41:44;24.55;;;15.85;;
2486;SDS011;1254;49.144;8.212;2023-03-01T08:44:13;25.73;;;14.65;;
2486;SDS011;1254;49.144;8.212;2023-03-01T08:46:43;24.38;;;15.93;;
2486;SDS011;1254;49.144;8.212;2023-03-01T08:49:12;21.98;;;14.50;;
2486;SDS011;1254;49.144;8.212;2023-03-01T08:51:41;19.98;;;13.70;;
2486;SDS011;1254;49.144;8.212;2023-03-01T08:54:10;32.70;;;16.70;;
2486;SDS011;1254;49.144;8.212;2023-03-01T08:56:40;25.98;;;15.90;;
2486;SDS011;1254;49.144;8.212;2023-03-01T08:59:09;22.52;;;15.38;;
2486;SDS011;1254;49.144;8.212;2023-03-01T09:01:37;22.00;;;14.38;;
2486;SDS011;1254;49.144;8.212;2023-03-01T09:04:06;29.15;;;16.42;;
2486;SDS011;1254;49.144;8.212;2023-03-01T09:09:03;28.60;;;16.23;;
2486;SDS011;1254;49.144;8.212;2023-03-01T09:11:31;24.60;;;14.80;;
2486;SDS011;1254;49.144;8.212;2023-03-01T09:14:04;22.08;;;14.48;;
2486;SDS011;1254;49.144;8.212;2023-03-01T09:16:32;24.17;;;15.70;;
2486;SDS011;1254;49.144;8.212;2023-03-01T09:19:02;27.55;;;15.90;;
2486;SDS011;1254;49.144;8.212;2023-03-01T09:21:30;26.92;;;16.73;;
2486;SDS011;1254;49.144;8.212;2023-03-01T09:23:58;25.50;;;17.10;;
2486;SDS011;1254;49.144;8.212;2023-03-01T09:26:26;23.52;;;16.08;;
2486;SDS011;1254;49.144;8.212;2023-03-01T09:28:55;24.92;;;15.95;;
2486;SDS011;1254;49.144;8.212;2023-03-01T09:31:25;26.95;;;16.58;;
2486;SDS011;1254;49.144;8.212;2023-03-01T09:33:53;25.48;;;17.17;;
2486;SDS011;1254;49.144;8.212;2023-03-01T09:36:22;21.52;;;15.90;;
2486;SDS011;1254;49.144;8.212;2023-03-01T09:38:52;26.65;;;17.48;;
2486;SDS011;1254;49.144;8.212;2023-03-01T09:41:36;23.60;;;17.10;;
2486;SDS011;1254;49.144;8.212;2023-03-01T09:44:09;21.83;;;13.95;;
2486;SDS011;1254;49.144;8.212;2023-03-01T09:46:40;22.38;;;14.27;;
2486;SDS011;1254;49.144;8.212;2023-03-01T09:49:10;24.52;;;16.63;;
2486;SDS011;1254;49.144;8.212;2023-03-01T09:51:41;23.20;;;15.27;;
2486;SDS011;1254;49.144;8.212;2023-03-01T09:54:09;25.60;;;17.70;;
2486;SDS011;1254;49.144;8.212;2023-03-01T09:56:39;27.67;;;16.33;;
2486;SDS011;1254;49.144;8.212;2023-03-01T09:59:14;25.17;;;17.08;;
2486;SDS011;1254;49.144;8.212;2023-03-01T10:01:46;27.95;;;17.75;;
2486;SDS011;1254;49.144;8.212;2023-03-01T10:04:30;29.08;;;18.92;;
2486;SDS011;1254;49.144;8.212;2023-03-01T10:07:05;22.60;;;15.85;;
2486;SDS011;1254;49.144;8.212;2023-03-01T10:09:36;24.73;;;17.00;;
2486;SDS011;1254;49.144;8.212;2023-03-01T10:12:08;16.05;;;13.40;;
2486;SDS011;1254;49.144;8.212;2023-03-01T10:14:38;26.58;;;17.85;;
2486;SDS011;1254;49.144;8.212;2023-03-01T10:17:11;20.95;;;15.90;;
2486;SDS011;1254;49.144;8.212;2023-03-01T10:19:41;27.40;;;17.45;;
2486;SDS011;1254;49.144;8.212;2023-03-01T10:22:11;24.88;;;17.33;;
2486;SDS011;1254;49.144;8.212;2023-03-01T10:24:41;24.23;;;16.90;;
2486;SDS011;1254;49.144;8.212;2023-03-01T10:27:10;24.20;;;18.13;;
2486;SDS011;1254;49.144;8.212;2023-03-01T10:29:44;26.48;;;18.25;;
2486;SDS011;1254;49.144;8.212;2023-03-01T10:32:15;22.50;;;17.35;;
2486;SDS011;1254;49.144;8.212;2023-03-01T10:34:44;26.00;;;20.70;;
2486;SDS011;1254;49.144;8.212;2023-03-01T10:37:13;22.45;;;18.40;;
2486;SDS011;1254;49.144;8.212;2023-03-01T10:39:54;21.15;;;16.45;;
2486;SDS011;1254;49.144;8.212;2023-03-01T10:42:25;23.65;;;18.38;;
2486;SDS011;1254;49.144;8.212;2023-03-01T10:44:54;26.73;;;18.48;;
2486;SDS011;1254;49.144;8.212;2023-03-01T10:47:24;27.77;;;19.08;;
2486;SDS011;1254;49.144;8.212;2023-03-01T10:49:53;26.45;;;20.85;;
2486;SDS011;1254;49.144;8.212;2023-03-01T10:52:23;24.35;;;19.60;;
2486;SDS011;1254;49.144;8.212;2023-03-01T10:54:52;24.50;;;20.33;;
2486;SDS011;1254;49.144;8.212;2023-03-01T10:57:31;22.70;;;18.35;;
2486;SDS011;1254;49.144;8.212;2023-03-01T11:00:15;22.58;;;17.10;;
2486;SDS011;1254;49.144;8.212;2023-03-01T11:02:48;23.90;;;17.42;;
2486;SDS011;1254;49.144;8.212;2023-03-01T11:05:18;29.90;;;18.58;;
2486;SDS011;1254;49.144;8.212;2023-03-01T11:07:47;24.67;;;18.02;;
2486;SDS011;1254;49.144;8.212;2023-03-01T11:10:16;27.15;;;18.50;;
2486;SDS011;1254;49.144;8.212;2023-03-01T11:12:45;25.52;;;18.67;;
2486;SDS011;1254;49.144;8.212;2023-03-01T11:15:20;25.75;;;17.88;;
2486;SDS011;1254;49.144;8.212;2023-03-01T11:17:49;23.50;;;19.20;;
2486;SDS011;1254;49.144;8.212;2023-03-01T11:20:20;19.50;;;16.60;;
2486;SDS011;1254;49.144;8.212;2023-03-01T11:22:52;20.25;;;17.02;;
2486;SDS011;1254;49.144;8.212;2023-03-01T11:25:23;25.75;;;20.38;;
2486;SDS011;1254;49.144;8.212;2023-03-01T11:27:52;22.50;;;19.45;;
2486;SDS011;1254;49.144;8.212;2023-03-01T11:30:22;21.40;;;18.75;;
2486;SDS011;1254;49.144;8.212;2023-03-01T11:32:55;21.45;;;18.30;;
2486;SDS011;1254;49.144;8.212;2023-03-01T11:35:25;22.48;;;18.92;;
2486;SDS011;1254;49.144;8.212;2023-03-01T11:37:57;22.05;;;19.75;;
2486;SDS011;1254;49.144;8.212;2023-03-01T11:40:27;22.38;;;19.92;;
2486;SDS011;1254;49.144;8.212;2023-03-01T11:43:01;28.92;;;18.58;;
2486;SDS011;1254;49.144;8.212;2023-03-01T11:45:35;21.92;;;19.65;;
2486;SDS011;1254;49.144;8.212;2023-03-01T11:48:10;22.55;;;20.15;;
2486;SDS011;1254;49.144;8.212;2023-03-01T11:50:44;24.38;;;19.45;;
2486;SDS011;1254;49.144;8.212;2023-03-01T11:53:19;27.13;;;19.23;;
2486;SDS011;1254;49.144;8.212;2023-03-01T11:58:36;20.60;;;18.45;;
2486;SDS011;1254;49.144;8.212;2023-03-01T12:01:12;20.38;;;18.00;;
2486;SDS011;1254;49.144;8.212;2023-03-01T12:06:36;23.43;;;20.10;;
2486;SDS011;1254;49.144;8.212;2023-03-01T12:09:11;22.53;;;18.47;;
2486;SDS011;1254;49.144;8.212;2023-03-01T12:11:47;23.53;;;20.63;;
2486;SDS011;1254;49.144;8.212;2023-03-01T12:14:28;22.43;;;19.90;;
2486;SDS011;1254;49.144;8.212;2023-03-01T12:17:11;21.70;;;19.43;;
2486;SDS011;1254;49.144;8.212;2023-03-01T12:19:46;21.85;;;19.58;;
2486;SDS011;1254;49.144;8.212;2023-03-01T12:22:30;22.85;;;20.58;;
2486;SDS011;1254;49.144;8.212;2023-03-01T12:25:02;22.30;;;19.83;;
2486;SDS011;1254;49.144;8.212;2023-03-01T12:27:37;22.13;;;19.80;;
2486;SDS011;1254;49.144;8.212;2023-03-01T12:30:13;22.37;;;19.80;;
2486;SDS011;1254;49.144;8.212;2023-03-01T12:32:47;25.05;;;19.75;;
2486;SDS011;1254;49.144;8.212;2023-03-01T12:35:23;21.07;;;18.70;;
2486;SDS011;1254;49.144;8.212;2023-03-01T12:37:55;23.70;;;19.33;;
2486;SDS011;1254;49.144;8.212;2023-03-01T12:40:29;21.65;;;19.40;;
2486;SDS011;1254;49.144;8.212;2023-03-01T12:43:04;23.50;;;21.10;;
2486;SDS011;1254;49.144;8.212;2023-03-01T12:45:40;21.95;;;19.75;;
2486;SDS011;1254;49.144;8.212;2023-03-01T12:48:16;20.75;;;18.65;;
2486;SDS011;1254;49.144;8.212;2023-03-01T12:50:47;20.15;;;18.15;;
2486;SDS011;1254;49.144;8.212;2023-03-01T12:53:22;21.13;;;18.42;;
2486;SDS011;1254;49.144;8.212;2023-03-01T12:55:52;20.13;;;18.40;;
2486;SDS011;1254;49.144;8.212;2023-03-01T12:58:24;21.03;;;18.90;;
2486;SDS011;1254;49.144;8.212;2023-03-01T13:00:57;22.13;;;20.00;;
2486;SDS011;1254;49.144;8.212;2023-03-01T13:03:31;21.80;;;19.47;;
2486;SDS011;1254;49.144;8.212;2023-03-01T13:06:06;20.67;;;18.47;;
2486;SDS011;1254;49.144;8.212;2023-03-01T13:08:38;18.90;;;17.03;;
2486;SDS011;1254;49.144;8.212;2023-03-01T13:11:11;19.93;;;18.03;;
2486;SDS011;1254;49.144;8.212;2023-03-01T13:13:43;23.30;;;20.47;;
2486;SDS011;1254;49.144;8.212;2023-03-01T13:16:22;25.20;;;20.27;;
2486;SDS011;1254;49.144;8.212;2023-03-01T13:19:06;22.10;;;19.97;;
2486;SDS011;1254;49.144;8.212;2023-03-01T13:21:36;22.10;;;19.80;;
2486;SDS011;1254;49.144;8.212;2023-03-01T13:24:22;22.40;;;18.63;;
2486;SDS011;1254;49.144;8.212;2023-03-01T13:27:08;22.45;;;20.15;;
2486;SDS011;1254;49.144;8.212;2023-03-01T13:29:43;23.03;;;20.57;;
2486;SDS011;1254;49.144;8.212;2023-03-01T13:32:21;21.77;;;19.57;;
2486;SDS011;1254;49.144;8.212;2023-03-01T13:34:54;22.53;;;20.27;;
2486;SDS011;1254;49.144;8.212;2023-03-01T13:37:23;21.90;;;19.60;;
2486;SDS011;1254;49.144;8.212;2023-03-01T13:39:57;24.07;;;21.60;;
2486;SDS011;1254;49.144;8.212;2023-03-01T13:42:34;23.20;;;19.77;;
2486;SDS011;1254;49.144;8.212;2023-03-01T13:45:04;22.47;;;20.07;;
2486;SDS011;1254;49.144;8.212;2023-03-01T13:47:33;21.57;;;19.27;;
2486;SDS011;1254;49.144;8.212;2023-03-01T13:50:03;23.03;;;20.53;;
2486;SDS011;1254;49.144;8.212;2023-03-01T13:52:35;22.80;;;20.50;;
2486;SDS011;1254;49.144;8.212;2023-03-01T13:55:05;23.37;;;18.77;;
2486;SDS011;1254;49.144;8.212;2023-03-01T13:57:34;28.23;;;20.63;;
2486;SDS011;1254;49.144;8.212;2023-03-01T14:00:05;22.80;;;20.23;;
2486;SDS011;1254;49.144;8.212;2023-03-01T14:02:34;23.23;;;20.70;;
2486;SDS011;1254;49.144;8.212;2023-03-01T14:05:02;22.50;;;20.23;;
2486;SDS011;1254;49.144;8.212;2023-03-01T14:07:31;23.17;;;19.00;;
2486;SDS011;1254;49.144;8.212;2023-03-01T14:10:00;25.90;;;20.33;;
2486;SDS011;1254;49.144;8.212;2023-03-01T14:12:34;23.13;;;20.93;;
2486;SDS011;1254;49.144;8.212;2023-03-01T14:15:06;25.43;;;20.00;;
2486;SDS011;1254;49.144;8.212;2023-03-01T14:20:20;21.23;;;18.93;;
2486;SDS011;1254;49.144;8.212;2023-03-01T14:22:50;24.67;;;20.20;;
2486;SDS011;1254;49.144;8.212;2023-03-01T14:25:21;22.67;;;20.13;;
2486;SDS011;1254;49.144;8.212;2023-03-01T14:30:41;19.73;;;17.33;;
2486;SDS011;1254;49.144;8.212;2023-03-01T14:33:18;22.90;;;19.60;;
2486;SDS011;1254;49.144;8.212;2023-03-01T14:35:51;20.30;;;18.20;;
2486;SDS011;1254;49.144;8.212;2023-03-01T14:38:21;22.00;;;19.03;;
2486;SDS011;1254;49.144;8.212;2023-03-01T14:40:51;24.03;;;18.30;;
2486;SDS011;1254;49.144;8.212;2023-03-01T14:43:21;21.63;;;19.43;;
2486;SDS011;1254;49.144;8.212;2023-03-01T14:45:53;20.37;;;18.40;;
2486;SDS011;1254;49.144;8.212;2023-03-01T14:48:21;22.80;;;19.33;;
2486;SDS011;1254;49.144;8.212;2023-03-01T14:50:50;25.67;;;19.70;;
2486;SDS011;1254;49.144;8.212;2023-03-01T14:53:19;21.53;;;19.20;;
2486;SDS011;1254;49.144;8.212;2023-03-01T14:55:48;20.03;;;18.00;;
2486;SDS011;1254;49.144;8.212;2023-03-01T14:58:19;19.77;;;17.90;;
2486;SDS011;1254;49.144;8.212;2023-03-01T15:00:49;20.83;;;18.93;;
2486;SDS011;1254;49.144;8.212;2023-03-01T15:03:23;21.33;;;18.47;;
2486;SDS011;1254;49.144;8.212;2023-03-01T15:05:52;20.63;;;18.63;;
2486;SDS011;1254;49.144;8.212;2023-03-01T15:08:23;19.53;;;17.67;;
2486;SDS011;1254;49.144;8.212;2023-03-01T15:10:58;20.10;;;18.10;;
2486;SDS011;1254;49.144;8.212;2023-03-01T15:13:29;19.83;;;17.93;;
2486;SDS011;1254;49.144;8.212;2023-03-01T15:16:02;19.97;;;17.83;;
2486;SDS011;1254;49.144;8.212;2023-03-01T15:18:32;20.13;;;17.20;;
2486;SDS011;1254;49.144;8.212;2023-03-01T15:21:07;22.80;;;19.57;;
2486;SDS011;1254;49.144;8.212;2023-03-01T15:23:36;20.73;;;16.07;;
2486;SDS011;1254;49.144;8.212;2023-03-01T15:26:16;18.90;;;17.20;;